Time;durP1;ratioP1;P1;durP2;ratioP2;P2;SDS_P1;SDS_P2;PMS_P1;PMS_P2;Temp;Humidity;BMP_temperature;BMP_pressure;BME280_temperature;BME280_humidity;BME280_pressure;Samples;Min_cycle;Max_cycle;Signal;HPM_P1;HPM_P2
2023/08/12 00:00:17;;;;;;;5.80;3.45;;;19.40;99.90;;;;;;5062559;28;20048;-81
2023/08/12 00:02:44;;;;;;;5.32;2.70;;;19.40;99.90;;;;;;5062760;28;20044;-81
2023/08/12 00:05:10;;;;;;;4.60;2.55;;;19.40;99.90;;;;;;5061411;28;20052;-81
2023/08/12 00:07:37;;;;;;;5.13;2.78;;;19.40;99.90;;;;;;5059145;28;20057;-81
2023/08/12 00:10:04;;;;;;;5.20;2.95;;;19.60;99.90;;;;;;5059856;28;20186;-80
2023/08/12 00:12:32;;;;;;;4.75;2.83;;;19.40;99.90;;;;;;5058399;28;20055;-81
2023/08/12 00:14:58;;;;;;;4.70;2.70;;;19.40;99.90;;;;;;5057370;28;20041;-81
2023/08/12 00:17:23;;;;;;;3.75;1.92;;;19.40;99.90;;;;;;5061501;28;20040;-81
2023/08/12 00:19:49;;;;;;;3.13;1.92;;;19.40;99.90;;;;;;5062923;28;20127;-81
2023/08/12 00:22:15;;;;;;;4.70;1.95;;;19.40;99.90;;;;;;5059714;28;20048;-81
2023/08/12 00:24:40;;;;;;;5.30;2.20;;;19.40;99.90;;;;;;5059375;28;20037;-80
2023/08/12 00:27:08;;;;;;;4.75;2.20;;;19.40;99.90;;;;;;5058532;28;20098;-81
2023/08/12 00:29:34;;;;;;;2.47;2.08;;;19.40;99.90;;;;;;5063138;28;20094;-81
2023/08/12 00:32:00;;;;;;;4.25;2.00;;;19.40;99.90;;;;;;5062103;28;20190;-81
2023/08/12 00:34:26;;;;;;;6.38;2.05;;;19.40;99.90;;;;;;5057996;28;20496;-80
2023/08/12 00:36:52;;;;;;;3.90;1.85;;;19.40;99.90;;;;;;5058967;28;20068;-80
2023/08/12 00:39:17;;;;;;;5.18;2.13;;;19.40;99.90;;;;;;5059900;28;20139;-80
2023/08/12 00:41:43;;;;;;;3.53;2.05;;;19.40;99.90;;;;;;5062738;28;20400;-81
2023/08/12 00:44:08;;;;;;;4.53;2.40;;;19.30;99.90;;;;;;5061938;28;20036;-80
2023/08/12 00:46:36;;;;;;;5.13;2.40;;;19.40;99.90;;;;;;5062447;28;20052;-81
2023/08/12 00:49:02;;;;;;;4.78;2.35;;;19.40;99.90;;;;;;5061564;28;20043;-81
2023/08/12 00:51:28;;;;;;;4.78;2.67;;;19.30;99.90;;;;;;5057780;28;20481;-81
2023/08/12 00:53:56;;;;;;;5.10;2.40;;;19.30;99.90;;;;;;5057871;28;20040;-81
2023/08/12 00:56:22;;;;;;;5.22;2.25;;;19.30;99.90;;;;;;5059407;28;20049;-81
2023/08/12 00:58:48;;;;;;;2.63;2.10;;;19.30;99.90;;;;;;5061268;28;20033;-81
2023/08/12 01:01:14;;;;;;;4.35;2.33;;;19.30;99.90;;;;;;5060369;28;20045;-81
2023/08/12 01:03:40;;;;;;;5.88;3.15;;;19.30;99.90;;;;;;5059073;28;20175;-81
2023/08/12 01:06:07;;;;;;;3.47;2.28;;;19.30;99.90;;;;;;5058831;28;20052;-81
2023/08/12 01:08:33;;;;;;;6.90;2.67;;;19.30;99.90;;;;;;5062882;28;20119;-81
2023/08/12 01:11:23;;;;;;;3.10;2.60;;;19.30;99.90;;;;;;5061836;28;20540;-81
2023/08/12 01:13:58;;;;;;;6.82;2.80;;;19.30;99.90;;;;;;5051879;28;20037;-81
2023/08/12 01:16:31;;;;;;;7.88;2.55;;;19.30;99.90;;;;;;5065020;28;20440;-81
2023/08/12 01:18:58;;;;;;;5.28;2.72;;;19.30;99.90;;;;;;5066846;28;20435;-81
2023/08/12 01:21:26;;;;;;;5.43;2.78;;;18.90;99.90;;;;;;5076984;28;20079;-81
2023/08/12 01:23:52;;;;;;;6.05;2.50;;;19.20;99.90;;;;;;5071994;28;20044;-81
2023/08/12 01:26:18;;;;;;;4.70;2.47;;;19.20;99.90;;;;;;5066472;28;20079;-81
2023/08/12 01:28:43;;;;;;;6.00;2.10;;;19.20;99.90;;;;;;5065925;28;20036;-81
2023/08/12 01:31:15;;;;;;;4.60;2.50;;;19.20;99.90;;;;;;5064741;28;20089;-81
2023/08/12 01:33:54;;;;;;;2.95;2.10;;;19.20;99.90;;;;;;5054326;28;20140;-81
2023/08/12 01:36:22;;;;;;;4.80;2.67;;;19.20;99.90;;;;;;5063688;28;20090;-81
2023/08/12 01:38:51;;;;;;;3.90;2.75;;;19.10;99.90;;;;;;5065210;28;20472;-81
2023/08/12 01:41:19;;;;;;;4.97;2.70;;;19.10;99.90;;;;;;5063723;28;20053;-81
2023/08/12 01:43:46;;;;;;;3.22;2.90;;;19.10;99.90;;;;;;5060899;28;20064;-81
2023/08/12 01:46:11;;;;;;;6.05;2.92;;;19.10;99.90;;;;;;5061669;28;20121;-81
2023/08/12 01:48:37;;;;;;;7.05;2.97;;;19.10;99.90;;;;;;5054119;28;20538;-81
2023/08/12 01:51:03;;;;;;;6.82;3.58;;;19.10;99.90;;;;;;5062235;28;20045;-81
2023/08/12 01:53:29;;;;;;;9.25;3.92;;;19.10;99.90;;;;;;5063827;28;20041;-81
2023/08/12 01:55:54;;;;;;;6.15;4.03;;;19.10;99.90;;;;;;5065254;28;20086;-82
2023/08/12 01:58:20;;;;;;;6.35;3.58;;;19.00;99.90;;;;;;5062999;28;20063;-81
2023/08/12 02:00:45;;;;;;;4.78;3.70;;;19.00;99.90;;;;;;5060217;28;20040;-81
2023/08/12 02:03:11;;;;;;;6.57;3.78;;;19.00;99.90;;;;;;5062229;28;20048;-81
2023/08/12 02:05:37;;;;;;;6.78;4.07;;;19.00;99.90;;;;;;5064419;28;20054;-81
2023/08/12 02:08:04;;;;;;;5.90;4.25;;;19.00;99.90;;;;;;5046705;28;20059;-81
2023/08/12 02:10:30;;;;;;;6.22;4.97;;;18.90;99.90;;;;;;5062976;28;20066;-81
2023/08/12 02:12:55;;;;;;;6.03;4.70;;;18.90;99.90;;;;;;5061067;28;20055;-81
2023/08/12 02:15:21;;;;;;;4.97;4.38;;;18.90;99.90;;;;;;5061488;28;20065;-81
2023/08/12 02:17:47;;;;;;;6.50;5.35;;;18.90;99.90;;;;;;5063871;28;20438;-81
2023/08/12 02:20:12;;;;;;;7.78;4.95;;;18.80;99.90;;;;;;5063750;28;20064;-81
2023/08/12 02:22:38;;;;;;;8.48;4.85;;;18.80;99.90;;;;;;5061179;28;20062;-81
2023/08/12 02:25:04;;;;;;;6.75;5.15;;;18.80;99.90;;;;;;5061133;28;20535;-81
2023/08/12 02:27:29;;;;;;;6.72;5.25;;;18.80;99.90;;;;;;5061890;28;20045;-81
2023/08/12 02:29:55;;;;;;;11.98;5.13;;;18.80;99.90;;;;;;5060761;28;20068;-81
2023/08/12 02:32:21;;;;;;;6.65;5.30;;;18.80;99.90;;;;;;5061692;28;20128;-81
2023/08/12 02:34:46;;;;;;;5.95;5.10;;;18.80;99.90;;;;;;5064079;28;20029;-81
2023/08/12 02:37:12;;;;;;;7.65;5.05;;;18.80;99.90;;;;;;5064739;28;20504;-81
2023/08/12 02:39:38;;;;;;;6.38;5.10;;;18.80;99.90;;;;;;5061723;28;20059;-81
2023/08/12 02:42:04;;;;;;;5.07;4.35;;;18.80;99.90;;;;;;5060747;28;20524;-81
2023/08/12 02:44:30;;;;;;;8.75;5.68;;;18.80;99.90;;;;;;5062544;28;20094;-81
2023/08/12 02:46:56;;;;;;;5.82;5.25;;;18.80;99.90;;;;;;5064647;28;20785;-81
2023/08/12 02:49:21;;;;;;;10.10;5.43;;;18.80;99.90;;;;;;5062774;28;20041;-81
2023/08/12 02:51:47;;;;;;;7.75;4.60;;;18.80;99.90;;;;;;5062049;28;20048;-81
2023/08/12 02:54:13;;;;;;;6.25;5.60;;;18.80;99.90;;;;;;5059589;28;20071;-81
2023/08/12 02:56:38;;;;;;;7.28;4.85;;;18.80;99.90;;;;;;5063145;28;20412;-81
2023/08/12 02:59:04;;;;;;;5.55;4.82;;;18.90;99.90;;;;;;5064453;28;20047;-81
2023/08/12 03:01:30;;;;;;;6.47;4.93;;;18.80;99.90;;;;;;5061550;28;20040;-81
2023/08/12 03:03:55;;;;;;;8.50;4.90;;;19.10;99.90;;;;;;5064337;28;20060;-81
2023/08/12 03:06:21;;;;;;;7.00;4.82;;;18.80;99.90;;;;;;5070569;28;20078;-81
2023/08/12 03:08:47;;;;;;;9.23;5.00;;;18.80;99.90;;;;;;5067130;28;20068;-81
2023/08/12 03:11:12;;;;;;;9.55;6.00;;;18.80;99.90;;;;;;5063740;28;20251;-81
2023/08/12 03:13:38;;;;;;;6.93;4.93;;;18.80;99.90;;;;;;5059849;28;20536;-81
2023/08/12 03:16:04;;;;;;;9.75;6.13;;;18.80;99.90;;;;;;5060496;28;20052;-81
2023/08/12 03:18:29;;;;;;;9.65;5.55;;;18.80;99.90;;;;;;5061190;28;20045;-81
2023/08/12 03:20:55;;;;;;;7.35;5.50;;;18.80;99.90;;;;;;5064060;28;20032;-81
2023/08/12 03:23:20;;;;;;;8.27;5.72;;;18.80;99.90;;;;;;5063903;28;20404;-81
2023/08/12 03:25:49;;;;;;;10.30;6.60;;;18.80;99.90;;;;;;5046338;28;20498;-81
2023/08/12 03:28:16;;;;;;;11.18;6.80;;;18.80;99.90;;;;;;5063738;28;20041;-81
2023/08/12 03:30:42;;;;;;;8.43;6.55;;;18.80;99.90;;;;;;5060904;28;20053;-81
2023/08/12 03:33:07;;;;;;;10.02;6.15;;;18.80;99.90;;;;;;5059581;28;20051;-81
2023/08/12 03:35:33;;;;;;;8.63;6.15;;;18.80;99.90;;;;;;5061991;28;20040;-81
2023/08/12 03:37:59;;;;;;;7.22;6.38;;;18.80;99.90;;;;;;5062602;28;20097;-81
2023/08/12 03:40:24;;;;;;;10.73;6.55;;;18.80;99.90;;;;;;5063231;28;20093;-81
2023/08/12 03:42:50;;;;;;;8.40;7.15;;;18.80;99.90;;;;;;5060006;28;20037;-81
2023/08/12 03:45:16;;;;;;;10.55;7.15;;;18.80;99.90;;;;;;5059020;28;20040;-81
2023/08/12 03:47:41;;;;;;;10.82;6.95;;;18.80;99.90;;;;;;5062527;28;20527;-81
2023/08/12 03:50:07;;;;;;;10.35;7.05;;;18.80;99.90;;;;;;5062325;28;20119;-81
2023/08/12 03:52:33;;;;;;;10.63;7.45;;;18.80;99.90;;;;;;5061358;28;20515;-81
2023/08/12 03:54:58;;;;;;;13.30;7.20;;;18.80;99.90;;;;;;5059722;28;20048;-82
2023/08/12 03:57:24;;;;;;;8.25;7.00;;;18.80;99.90;;;;;;5059705;28;20036;-81
2023/08/12 03:59:50;;;;;;;9.50;6.65;;;18.80;99.90;;;;;;5050965;28;20124;-81
2023/08/12 04:02:15;;;;;;;12.23;7.53;;;18.80;99.90;;;;;;5041808;28;20087;-81
2023/08/12 04:04:43;;;;;;;9.45;6.97;;;18.80;99.90;;;;;;5061839;28;20413;-81
2023/08/12 04:07:09;;;;;;;10.15;7.88;;;18.80;99.90;;;;;;5062575;28;20498;-81
2023/08/12 04:09:35;;;;;;;11.00;8.32;;;18.80;99.90;;;;;;5062251;28;20047;-81
2023/08/12 04:12:00;;;;;;;9.27;7.82;;;18.80;99.90;;;;;;5059637;28;20141;-81
2023/08/12 04:14:26;;;;;;;12.27;8.15;;;18.80;99.90;;;;;;5058820;28;20072;-81
2023/08/12 04:16:51;;;;;;;11.90;8.20;;;18.40;99.90;;;;;;5051323;28;20037;-81
2023/08/12 04:19:17;;;;;;;12.02;8.57;;;18.80;99.90;;;;;;5058425;28;20041;-81
2023/08/12 04:21:46;;;;;;;10.20;7.85;;;18.80;99.90;;;;;;5061092;28;20044;-81
2023/08/12 04:24:11;;;;;;;10.65;8.23;;;19.40;99.90;;;;;;5056722;28;20052;-81
2023/08/12 04:26:37;;;;;;;12.63;7.70;;;18.90;99.90;;;;;;5060800;28;20040;-81
2023/08/12 04:29:03;;;;;;;10.43;7.95;;;18.90;99.90;;;;;;5065755;28;20045;-81
2023/08/12 04:31:28;;;;;;;14.48;8.60;;;18.80;99.90;;;;;;5059624;28;20037;-81
2023/08/12 04:33:54;;;;;;;14.90;8.63;;;19.00;99.90;;;;;;5059064;28;20091;-81
2023/08/12 04:36:20;;;;;;;13.50;7.93;;;18.90;99.90;;;;;;5057650;28;20049;-81
2023/08/12 04:38:45;;;;;;;10.25;7.15;;;18.80;99.90;;;;;;5060759;28;20053;-81
2023/08/12 04:41:11;;;;;;;15.68;8.63;;;18.90;99.90;;;;;;5062502;28;20076;-81
2023/08/12 04:43:37;;;;;;;8.70;7.78;;;18.90;99.90;;;;;;5061674;28;20098;-81
2023/08/12 04:46:02;;;;;;;11.60;7.78;;;18.90;99.90;;;;;;5060995;28;20463;-81
2023/08/12 04:48:28;;;;;;;9.00;8.10;;;18.90;99.90;;;;;;5068721;28;20044;-81
2023/08/12 04:50:54;;;;;;;12.13;7.40;;;18.90;99.90;;;;;;5076146;28;20040;-81
2023/08/12 04:53:22;;;;;;;13.02;8.38;;;18.90;99.90;;;;;;5068695;28;20052;-81
2023/08/12 04:55:51;;;;;;;10.85;7.20;;;18.90;99.90;;;;;;5063290;28;20045;-81
2023/08/12 04:58:17;;;;;;;11.43;7.25;;;18.90;99.90;;;;;;5062458;28;20045;-81
2023/08/12 05:00:42;;;;;;;15.95;8.15;;;18.90;99.90;;;;;;5064625;28;20452;-81
2023/08/12 05:03:08;;;;;;;10.88;7.78;;;18.90;99.90;;;;;;5065703;28;20113;-82
2023/08/12 05:05:33;;;;;;;9.07;6.25;;;18.90;99.90;;;;;;5066518;28;20396;-81
2023/08/12 05:07:59;;;;;;;11.68;7.22;;;18.90;99.90;;;;;;5063655;28;20673;-81
2023/08/12 05:10:25;;;;;;;10.63;7.90;;;18.90;99.90;;;;;;5062329;28;20464;-81
2023/08/12 05:12:52;;;;;;;10.43;8.02;;;19.00;99.90;;;;;;5064602;28;20552;-81
2023/08/12 05:15:17;;;;;;;13.85;8.23;;;18.00;99.90;;;;;;5067410;28;20412;-82
2023/08/12 05:17:43;;;;;;;9.02;7.38;;;19.00;99.90;;;;;;5065526;28;20033;-82
2023/08/12 05:20:09;;;;;;;11.23;7.75;;;19.00;99.90;;;;;;5067587;28;20048;-82
2023/08/12 05:22:35;;;;;;;11.50;7.57;;;19.00;99.90;;;;;;5066976;28;20032;-81
2023/08/12 05:25:00;;;;;;;9.77;7.93;;;19.00;99.90;;;;;;5062417;28;20087;-81
2023/08/12 05:27:26;;;;;;;9.45;7.70;;;19.10;99.90;;;;;;5063795;28;20064;-81
2023/08/12 05:29:51;;;;;;;12.35;8.02;;;19.00;99.90;;;;;;5068948;28;20186;-81
2023/08/12 05:32:17;;;;;;;11.95;8.23;;;19.10;99.90;;;;;;5069820;28;20545;-81
2023/08/12 05:34:44;;;;;;;11.23;7.82;;;19.10;99.90;;;;;;5048202;28;20045;-82
2023/08/12 05:37:09;;;;;;;9.80;7.70;;;19.20;99.90;;;;;;5063001;28;20049;-82
2023/08/12 05:39:35;;;;;;;12.30;8.32;;;19.20;99.90;;;;;;5063016;28;20045;-82
2023/08/12 05:42:00;;;;;;;10.90;8.15;;;19.20;99.90;;;;;;5055179;28;20052;-82
2023/08/12 05:44:26;;;;;;;10.63;8.20;;;19.30;99.90;;;;;;5063728;28;20052;-81
2023/08/12 05:46:52;;;;;;;13.18;8.25;;;19.30;99.90;;;;;;5064489;28;20051;-81
2023/08/12 05:49:17;;;;;;;11.82;8.75;;;19.30;99.90;;;;;;5065910;28;20033;-82
2023/08/12 05:51:43;;;;;;;11.90;8.75;;;19.30;99.90;;;;;;5063745;28;20120;-82
2023/08/12 05:54:08;;;;;;;14.93;8.48;;;19.30;99.90;;;;;;5044677;28;20044;-81
2023/08/12 05:56:34;;;;;;;14.50;8.63;;;19.30;99.90;;;;;;5061179;28;20032;-81
2023/08/12 05:59:00;;;;;;;10.13;8.15;;;19.50;99.90;;;;;;5065100;28;20089;-82
2023/08/12 06:01:27;;;;;;;9.07;8.07;;;19.50;99.90;;;;;;5066035;28;20045;-81
2023/08/12 06:03:52;;;;;;;15.15;8.48;;;19.40;99.90;;;;;;5064289;28;20043;-81
2023/08/12 06:06:18;;;;;;;10.20;8.45;;;19.40;99.90;;;;;;5060968;28;20048;-81
2023/08/12 06:08:43;;;;;;;14.63;8.50;;;19.50;99.90;;;;;;5066115;28;20395;-81
2023/08/12 06:11:09;;;;;;;15.98;9.18;;;19.50;99.90;;;;;;5067507;28;20089;-82
2023/08/12 06:13:35;;;;;;;10.75;8.95;;;19.50;99.90;;;;;;5064985;28;20037;-82
2023/08/12 06:16:01;;;;;;;18.42;11.40;;;19.50;99.90;;;;;;5063833;28;20195;-81
2023/08/12 06:18:26;;;;;;;19.38;10.32;;;19.50;99.90;;;;;;5065003;28;20037;-82
2023/08/12 06:20:52;;;;;;;14.75;11.18;;;19.50;99.90;;;;;;5063398;28;20052;-82
2023/08/12 06:23:18;;;;;;;20.90;10.15;;;19.50;99.90;;;;;;5068192;28;20044;-80
2023/08/12 06:25:43;;;;;;;13.73;9.93;;;19.50;99.90;;;;;;5067586;28;20032;-81
2023/08/12 06:28:10;;;;;;;16.73;10.77;;;20.00;99.90;;;;;;5064064;28;20071;-81
2023/08/12 06:30:36;;;;;;;16.38;10.00;;;19.60;99.90;;;;;;5070194;28;20041;-82
2023/08/12 06:33:02;;;;;;;15.40;10.70;;;19.60;99.90;;;;;;5074654;28;20040;-83
2023/08/12 06:35:28;;;;;;;13.43;9.57;;;19.60;99.90;;;;;;5064156;28;20037;-81
2023/08/12 06:37:54;;;;;;;13.40;10.30;;;19.60;99.90;;;;;;5063201;28;20502;-81
2023/08/12 06:40:19;;;;;;;13.10;10.32;;;19.60;99.90;;;;;;5063340;28;20052;-83
2023/08/12 06:42:45;;;;;;;17.40;11.30;;;19.60;99.90;;;;;;5062287;28;20408;-83
2023/08/12 06:45:11;;;;;;;12.27;9.75;;;19.60;99.90;;;;;;5064598;28;20586;-83
2023/08/12 06:47:37;;;;;;;18.67;11.82;;;19.70;99.90;;;;;;5066579;28;20040;-81
2023/08/12 06:50:03;;;;;;;16.90;11.82;;;19.70;99.90;;;;;;5065213;28;20609;-81
2023/08/12 06:52:28;;;;;;;14.93;10.55;;;19.70;99.90;;;;;;5069677;28;20105;-82
2023/08/12 06:54:54;;;;;;;17.58;11.80;;;19.70;99.90;;;;;;5062445;28;20381;-82
2023/08/12 06:57:19;;;;;;;15.32;10.38;;;19.70;99.90;;;;;;5065794;28;20127;-82
2023/08/12 06:59:45;;;;;;;22.60;12.00;;;19.70;99.90;;;;;;5066069;28;20488;-82
2023/08/12 07:02:12;;;;;;;21.08;12.38;;;19.70;99.90;;;;;;5061325;28;20051;-82
2023/08/12 07:04:38;;;;;;;32.03;23.13;;;19.70;99.90;;;;;;5061335;28;20448;-82
2023/08/12 07:07:03;;;;;;;20.83;14.50;;;19.70;99.90;;;;;;5062764;28;20056;-82
2023/08/12 07:09:29;;;;;;;15.60;12.38;;;19.80;99.90;;;;;;5064099;28;20094;-82
2023/08/12 07:11:54;;;;;;;16.70;13.10;;;19.80;99.90;;;;;;5062381;28;20040;-82
2023/08/12 07:14:20;;;;;;;21.98;12.90;;;19.80;99.90;;;;;;5059075;28;20036;-82
2023/08/12 07:16:46;;;;;;;15.82;12.75;;;19.80;99.90;;;;;;5059141;28;20037;-82
2023/08/12 07:19:11;;;;;;;20.67;12.98;;;20.00;99.90;;;;;;5062492;28;20033;-82
2023/08/12 07:21:37;;;;;;;20.83;11.82;;;19.80;99.90;;;;;;5063888;28;20358;-82
2023/08/12 07:24:03;;;;;;;27.00;12.90;;;19.80;99.90;;;;;;5060524;28;20044;-82
2023/08/12 07:26:29;;;;;;;18.25;13.75;;;19.90;99.90;;;;;;5059131;28;20127;-82
2023/08/12 07:28:54;;;;;;;24.52;13.55;;;19.90;99.90;;;;;;5060005;28;20460;-82
2023/08/12 07:31:20;;;;;;;26.27;15.48;;;19.90;99.90;;;;;;5063056;28;20102;-82
2023/08/12 07:33:46;;;;;;;21.08;14.48;;;19.90;99.90;;;;;;5063793;28;20048;-82
2023/08/12 07:36:11;;;;;;;20.50;14.63;;;19.90;99.90;;;;;;5045178;28;20486;-83
2023/08/12 07:38:37;;;;;;;16.88;12.15;;;20.00;99.90;;;;;;5062935;28;20123;-82
2023/08/12 07:41:04;;;;;;;21.77;13.43;;;20.00;99.90;;;;;;5060727;28;20063;-82
2023/08/12 07:43:29;;;;;;;20.17;14.18;;;20.00;99.90;;;;;;5060039;28;20436;-82
2023/08/12 07:45:55;;;;;;;21.45;18.63;;;20.00;99.90;;;;;;5061735;28;20505;-82
2023/08/12 07:48:21;;;;;;;18.40;13.68;;;20.00;99.90;;;;;;5063404;28;20499;-80
2023/08/12 07:50:49;;;;;;;21.50;14.38;;;20.00;99.90;;;;;;5056087;28;20417;-81
2023/08/12 07:53:15;;;;;;;19.70;13.82;;;20.00;99.90;;;;;;5059348;28;20041;-81
2023/08/12 07:55:42;;;;;;;21.27;13.10;;;20.10;99.90;;;;;;5060227;28;20400;-81
2023/08/12 07:58:08;;;;;;;18.83;13.48;;;20.10;99.90;;;;;;5062811;28;20374;-81
2023/08/12 08:00:33;;;;;;;18.02;13.27;;;20.10;99.90;;;;;;5058010;28;20115;-80
2023/08/12 08:02:59;;;;;;;16.95;13.00;;;20.00;99.90;;;;;;5061052;28;20073;-81
2023/08/12 08:05:25;;;;;;;24.08;13.80;;;20.10;99.90;;;;;;5062329;28;20048;-81
2023/08/12 08:07:51;;;;;;;17.65;13.00;;;20.10;99.90;;;;;;5079177;28;20051;-81
2023/08/12 08:10:16;;;;;;;21.38;13.00;;;20.10;99.90;;;;;;5059174;28;20044;-81
2023/08/12 08:12:42;;;;;;;19.27;13.27;;;20.10;99.90;;;;;;5063434;28;20037;-81
2023/08/12 08:15:08;;;;;;;19.23;12.93;;;20.10;99.90;;;;;;5072255;28;20480;-81
2023/08/12 08:17:34;;;;;;;23.25;13.52;;;20.10;99.90;;;;;;5067818;28;20048;-81
2023/08/12 08:20:00;;;;;;;16.52;12.65;;;20.20;99.90;;;;;;5063015;28;20085;-81
2023/08/12 08:22:27;;;;;;;18.85;13.50;;;20.10;99.90;;;;;;5065053;28;20041;-82
2023/08/12 08:24:53;;;;;;;17.05;13.77;;;20.20;99.90;;;;;;5062429;28;20036;-82
2023/08/12 08:27:19;;;;;;;20.30;12.93;;;20.20;99.90;;;;;;5074766;28;20566;-83
2023/08/12 08:29:45;;;;;;;16.80;13.27;;;20.20;99.90;;;;;;5041622;28;20198;-82
2023/08/12 08:32:10;;;;;;;18.20;12.43;;;20.20;99.90;;;;;;5043316;28;20164;-82
2023/08/12 08:34:36;;;;;;;20.38;17.02;;;20.20;99.90;;;;;;5061368;28;20040;-82
2023/08/12 08:37:02;;;;;;;19.50;13.50;;;20.20;99.90;;;;;;5063113;28;20036;-82
2023/08/12 08:39:28;;;;;;;18.60;13.40;;;20.20;99.90;;;;;;5054895;28;20116;-82
2023/08/12 08:41:55;;;;;;;15.57;12.30;;;20.20;99.90;;;;;;5063302;28;20120;-82
2023/08/12 08:44:23;;;;;;;16.98;12.70;;;20.20;99.90;;;;;;5063594;28;20318;-82
2023/08/12 08:46:53;;;;;;;21.08;14.05;;;20.20;99.90;;;;;;5063317;28;20127;-80
2023/08/12 08:49:19;;;;;;;17.80;14.00;;;20.20;99.90;;;;;;5078345;28;20045;-81
2023/08/12 08:51:46;;;;;;;20.85;13.30;;;20.20;99.90;;;;;;5063222;28;20131;-82
2023/08/12 08:54:13;;;;;;;18.05;13.20;;;20.20;99.90;;;;;;5060661;28;20039;-81
2023/08/12 08:56:39;;;;;;;18.50;14.27;;;20.50;99.90;;;;;;5060726;28;20464;-82
2023/08/12 08:59:05;;;;;;;19.15;13.93;;;20.20;99.90;;;;;;5061781;28;20036;-81
2023/08/12 09:01:31;;;;;;;24.52;15.73;;;20.20;99.90;;;;;;5055028;28;20544;-82
2023/08/12 09:03:58;;;;;;;23.52;15.80;;;20.20;99.90;;;;;;5062166;28;20064;-81
2023/08/12 09:06:28;;;;;;;21.10;15.32;;;20.20;99.90;;;;;;5059027;28;20053;-82
2023/08/12 09:08:54;;;;;;;22.40;14.95;;;20.10;99.90;;;;;;5058425;28;20106;-81
2023/08/12 09:11:20;;;;;;;25.35;17.88;;;20.20;99.90;;;;;;5060330;28;20080;-82
2023/08/12 09:13:47;;;;;;;23.48;15.38;;;20.10;99.90;;;;;;5061053;28;20044;-82
2023/08/12 09:16:13;;;;;;;19.00;15.20;;;20.20;99.90;;;;;;5060450;28;20047;-83
2023/08/12 09:18:42;;;;;;;22.90;16.95;;;20.20;99.90;;;;;;5058940;28;20118;-81
2023/08/12 09:21:08;;;;;;;22.48;17.35;;;20.10;99.90;;;;;;5058417;28;20071;-81
2023/08/12 09:23:37;;;;;;;25.67;17.83;;;20.10;99.90;;;;;;5061638;28;20066;-82
2023/08/12 09:26:03;;;;;;;22.02;17.75;;;20.10;99.90;;;;;;5062432;28;20056;-82
2023/08/12 09:28:29;;;;;;;21.23;17.02;;;20.10;99.90;;;;;;5058847;28;20493;-82
2023/08/12 09:30:55;;;;;;;28.77;19.73;;;20.20;99.90;;;;;;5056909;28;20126;-81
2023/08/12 09:33:26;;;;;;;25.45;18.75;;;20.20;99.90;;;;;;5059625;28;20125;-81
2023/08/12 09:35:53;;;;;;;20.73;17.33;;;20.20;99.90;;;;;;5062697;28;20087;-81
2023/08/12 09:38:19;;;;;;;19.73;16.73;;;20.20;99.90;;;;;;5078509;28;20039;-81
2023/08/12 09:40:47;;;;;;;24.95;19.27;;;20.10;99.90;;;;;;5061289;28;20040;-81
2023/08/12 09:43:12;;;;;;;21.80;16.83;;;20.10;99.90;;;;;;5062044;28;20040;-81
2023/08/12 09:45:38;;;;;;;18.15;16.23;;;20.10;99.90;;;;;;5064911;28;20044;-81
2023/08/12 09:48:04;;;;;;;20.13;15.30;;;20.10;99.90;;;;;;5065895;28;20040;-82
2023/08/12 09:50:30;;;;;;;17.17;14.63;;;20.10;99.90;;;;;;5062218;28;20048;-82
2023/08/12 09:52:56;;;;;;;17.98;15.65;;;20.10;99.90;;;;;;5061277;28;20048;-80
2023/08/12 09:55:25;;;;;;;18.13;15.00;;;20.10;99.90;;;;;;5067587;28;20059;-80
2023/08/12 09:57:52;;;;;;;14.93;13.23;;;20.10;99.90;;;;;;5075572;28;20040;-81
2023/08/12 10:00:20;;;;;;;15.23;13.57;;;20.00;99.90;;;;;;5066067;28;20059;-81
2023/08/12 10:02:48;;;;;;;17.85;14.73;;;20.10;99.90;;;;;;5061254;28;20102;-80
2023/08/12 10:05:33;;;;;;;17.88;14.73;;;20.10;99.90;;;;;;5061745;28;20060;-81
2023/08/12 10:08:03;;;;;;;14.43;12.65;;;20.00;99.90;;;;;;5065140;28;20119;-81
2023/08/12 10:10:30;;;;;;;15.43;13.77;;;20.00;99.90;;;;;;5062493;28;20420;-83
2023/08/12 10:12:56;;;;;;;16.80;12.98;;;20.00;99.90;;;;;;5042802;28;20037;-82
2023/08/12 10:15:22;;;;;;;14.30;12.77;;;20.00;99.90;;;;;;5063621;28;20120;-82
2023/08/12 10:17:51;;;;;;;14.52;11.93;;;19.90;99.90;;;;;;5059964;28;20044;-82
2023/08/12 10:20:21;;;;;;;11.95;10.63;;;20.00;99.90;;;;;;5061851;28;20067;-82
2023/08/12 10:22:47;;;;;;;13.23;11.68;;;20.00;99.90;;;;;;5068049;28;20033;-81
2023/08/12 10:25:14;;;;;;;10.73;8.63;;;20.00;99.90;;;;;;5060553;28;20045;-82
2023/08/12 10:27:40;;;;;;;8.00;6.43;;;20.00;99.90;;;;;;5059350;28;20071;-82
2023/08/12 10:30:07;;;;;;;7.82;7.03;;;20.00;99.90;;;;;;5060225;28;20574;-82
2023/08/12 10:32:34;;;;;;;5.50;4.00;;;20.00;99.90;;;;;;5062932;28;20424;-83
2023/08/12 10:35:09;;;;;;;5.78;3.08;;;19.90;99.90;;;;;;5047209;28;20040;-82
2023/08/12 10:37:35;;;;;;;5.13;3.28;;;19.90;99.90;;;;;;5056717;28;20059;-82
2023/08/12 10:40:22;;;;;;;4.93;3.55;;;19.80;99.90;;;;;;5064494;28;20098;-82
2023/08/12 10:42:49;;;;;;;5.35;3.10;;;19.80;99.90;;;;;;5064464;28;20036;-83
2023/08/12 10:45:16;;;;;;;4.07;2.95;;;19.70;99.90;;;;;;5064299;28;20076;-83
2023/08/12 10:47:52;;;;;;;4.32;2.90;;;19.80;99.90;;;;;;5060282;28;20082;-83
2023/08/12 10:50:22;;;;;;;3.20;2.90;;;19.80;99.90;;;;;;5060863;28;20107;-83
2023/08/12 10:52:53;;;;;;;5.00;2.72;;;19.70;99.90;;;;;;5064380;28;20044;-83
2023/08/12 10:55:20;;;;;;;6.40;3.58;;;19.80;99.90;;;;;;5063103;28;20040;-82
2023/08/12 10:57:47;;;;;;;5.05;3.60;;;19.10;99.90;;;;;;5061075;28;20068;-82
2023/08/12 11:00:17;;;;;;;3.63;3.30;;;19.80;99.90;;;;;;5060812;28;20056;-82
2023/08/12 11:02:50;;;;;;;6.38;3.13;;;19.80;99.90;;;;;;5052440;28;20125;-83
2023/08/12 11:05:18;;;;;;;7.00;4.10;;;19.80;99.90;;;;;;5059744;28;20052;-83
2023/08/12 11:08:00;;;;;;;7.55;3.90;;;19.90;99.90;;;;;;5064564;28;20173;-81
2023/08/12 11:10:30;;;;;;;7.55;4.30;;;19.90;99.90;;;;;;5062663;28;20686;-82
2023/08/12 11:12:57;;;;;;;4.35;3.80;;;19.90;99.90;;;;;;5060291;28;20131;-82
2023/08/12 11:15:36;;;;;;;3.95;3.30;;;19.90;99.90;;;;;;5059769;28;20559;-82
2023/08/12 11:18:06;;;;;;;7.22;4.40;;;19.90;99.90;;;;;;5064123;28;20051;-82
2023/08/12 11:20:32;;;;;;;6.68;3.55;;;19.90;99.90;;;;;;5061889;28;20044;-81
2023/08/12 11:22:59;;;;;;;3.30;2.05;;;19.90;99.90;;;;;;5059734;28;20041;-82
2023/08/12 11:25:25;;;;;;;2.85;1.70;;;19.90;99.90;;;;;;5061390;28;20041;-82
2023/08/12 11:27:52;;;;;;;2.05;1.30;;;19.80;99.90;;;;;;5062569;28;20040;-83
2023/08/12 11:30:20;;;;;;;5.35;1.85;;;19.80;99.90;;;;;;5063029;28;20392;-81
2023/08/12 11:32:55;;;;;;;4.22;2.03;;;19.50;99.90;;;;;;5041984;28;20051;-81
2023/08/12 11:35:23;;;;;;;4.55;2.15;;;19.30;99.90;;;;;;5059653;28;20500;-81
2023/08/12 11:37:55;;;;;;;3.53;1.92;;;19.10;99.90;;;;;;5067471;28;20481;-81
2023/08/12 11:40:21;;;;;;;4.20;1.95;;;18.90;99.90;;;;;;5069135;28;20041;-81
2023/08/12 11:42:49;;;;;;;7.55;2.47;;;18.70;99.90;;;;;;5068765;28;20117;-81
2023/08/12 11:45:23;;;;;;;7.97;2.97;;;18.60;99.90;;;;;;5063839;28;20071;-81
2023/08/12 11:47:52;;;;;;;6.00;2.45;;;18.50;99.90;;;;;;5051355;28;20087;-81
2023/08/12 11:50:21;;;;;;;7.82;2.70;;;18.40;99.90;;;;;;5059260;28;20120;-81
2023/08/12 11:52:48;;;;;;;4.85;2.28;;;18.40;99.90;;;;;;5050637;28;20047;-82
2023/08/12 11:55:14;;;;;;;4.97;2.15;;;18.30;99.90;;;;;;5059014;28;20389;-82
2023/08/12 11:57:41;;;;;;;7.60;2.47;;;18.10;99.90;;;;;;5061515;28;20041;-81
2023/08/12 12:00:15;;;;;;;7.95;2.17;;;18.10;99.90;;;;;;5063216;28;20084;-81
2023/08/12 12:02:46;;;;;;;7.00;2.60;;;18.10;99.90;;;;;;5060318;28;20036;-81
2023/08/12 12:05:13;;;;;;;6.03;2.20;;;18.00;99.90;;;;;;5058918;28;20065;-83
2023/08/12 12:07:38;;;;;;;7.13;2.22;;;18.00;99.90;;;;;;5062675;28;20045;-82
2023/08/12 12:10:05;;;;;;;5.65;2.15;;;18.00;99.90;;;;;;5064145;28;20052;-83
2023/08/12 12:12:35;;;;;;;6.03;3.25;;;17.90;99.90;;;;;;5062940;28;20049;-83
2023/08/12 12:15:00;;;;;;;5.30;2.22;;;17.80;99.90;;;;;;5044151;28;20403;-81
2023/08/12 12:17:26;;;;;;;4.30;1.80;;;17.90;99.90;;;;;;5061986;28;20136;-82
2023/08/12 12:19:57;;;;;;;6.90;2.60;;;18.00;99.90;;;;;;5064732;28;20044;-83
2023/08/12 12:22:45;;;;;;;4.82;1.73;;;18.00;99.90;;;;;;5055564;28;20412;-82
2023/08/12 12:25:13;;;;;;;3.72;2.05;;;18.00;99.90;;;;;;5056950;28;20056;-83
2023/08/12 12:27:40;;;;;;;6.15;2.30;;;18.50;99.90;;;;;;5061236;28;20045;-85
2023/08/12 12:30:11;;;;;;;5.65;1.77;;;18.30;99.90;;;;;;5064597;28;20076;-82
2023/08/12 12:32:37;;;;;;;6.25;1.75;;;18.40;99.90;;;;;;5061811;28;20040;-83
2023/08/12 12:35:03;;;;;;;8.35;2.15;;;18.50;99.90;;;;;;5061187;28;20079;-83